Widefield, Colorado
Current Conditions -  °F | °C
As of 12:54 AM on Wednesday 26 Nov 2014 (Local Time) from KCOS Reporting Station
Scattered Clouds Scattered Clouds  
Wind Chill: 17°   Ceiling: Unl
Heat Index: 28°   Visibility: 10mi
Dew Point: 25°   Wind: 14mph
Humidity: 88%   Direction: 10°N
Pressure: 30.09"   Gusts: NA
Location:  38.7481°N, 104.708°W
Report Text: KCOS 260754Z 01012KT 10SM SCT015 M02/M04 A3009 RMK AO2 SLP200 T10221039
Loading
Personal Weather Stations






























Interactive Weather Map New forecast layout! Learn more

10-Day Weather Forecast

Advertisements
Track Severe Weather on mobile